sensor_id;sensor_type;location;lat;lon;timestamp;temperature;humidity
33841;DHT22;20142;28.494;-16.312;2023-05-10T00:02:26;20.10;79.20
33841;DHT22;20142;28.494;-16.312;2023-05-10T00:07:28;20.00;79.50
33841;DHT22;20142;28.494;-16.312;2023-05-10T00:12:30;19.90;79.60
33841;DHT22;20142;28.494;-16.312;2023-05-10T00:17:31;19.90;79.70
33841;DHT22;20142;28.494;-16.312;2023-05-10T00:22:33;19.90;79.90
33841;DHT22;20142;28.494;-16.312;2023-05-10T00:27:35;19.70;80.40
33841;DHT22;20142;28.494;-16.312;2023-05-10T00:32:37;19.90;80.40
33841;DHT22;20142;28.494;-16.312;2023-05-10T00:37:38;20.00;79.80
33841;DHT22;20142;28.494;-16.312;2023-05-10T00:42:40;20.00;79.70
33841;DHT22;20142;28.494;-16.312;2023-05-10T00:47:42;20.10;79.80
33841;DHT22;20142;28.494;-16.312;2023-05-10T00:52:44;20.20;79.50
33841;DHT22;20142;28.494;-16.312;2023-05-10T00:57:45;20.40;78.80
33841;DHT22;20142;28.494;-16.312;2023-05-10T01:02:48;20.40;78.90
33841;DHT22;20142;28.494;-16.312;2023-05-10T01:07:50;20.40;79.00
33841;DHT22;20142;28.494;-16.312;2023-05-10T01:12:52;20.40;78.80
33841;DHT22;20142;28.494;-16.312;2023-05-10T01:17:55;20.50;78.30
33841;DHT22;20142;28.494;-16.312;2023-05-10T01:23:22;20.70;77.70
33841;DHT22;20142;28.494;-16.312;2023-05-10T01:28:51;20.70;77.50
33841;DHT22;20142;28.494;-16.312;2023-05-10T01:34:14;20.70;77.20
33841;DHT22;20142;28.494;-16.312;2023-05-10T01:39:25;20.80;77.30
33841;DHT22;20142;28.494;-16.312;2023-05-10T01:44:41;20.90;76.70
33841;DHT22;20142;28.494;-16.312;2023-05-10T01:55:06;20.90;76.10
33841;DHT22;20142;28.494;-16.312;2023-05-10T02:00:11;20.60;76.60
33841;DHT22;20142;28.494;-16.312;2023-05-10T02:05:16;20.50;77.10
33841;DHT22;20142;28.494;-16.312;2023-05-10T02:10:19;20.30;77.20
33841;DHT22;20142;28.494;-16.312;2023-05-10T02:15:23;20.20;77.20
33841;DHT22;20142;28.494;-16.312;2023-05-10T02:20:26;20.20;77.70
33841;DHT22;20142;28.494;-16.312;2023-05-10T02:25:28;20.30;77.80
33841;DHT22;20142;28.494;-16.312;2023-05-10T02:30:32;20.40;77.50
33841;DHT22;20142;28.494;-16.312;2023-05-10T02:35:36;20.30;77.90
33841;DHT22;20142;28.494;-16.312;2023-05-10T02:40:41;20.10;77.80
33841;DHT22;20142;28.494;-16.312;2023-05-10T02:45:44;20.00;78.80
33841;DHT22;20142;28.494;-16.312;2023-05-10T02:50:51;20.10;78.70
33841;DHT22;20142;28.494;-16.312;2023-05-10T02:55:59;20.20;78.90
33841;DHT22;20142;28.494;-16.312;2023-05-10T03:01:02;20.30;78.70
33841;DHT22;20142;28.494;-16.312;2023-05-10T03:06:04;20.30;78.70
33841;DHT22;20142;28.494;-16.312;2023-05-10T03:16:47;20.20;78.50
33841;DHT22;20142;28.494;-16.312;2023-05-10T03:21:59;20.10;78.70
33841;DHT22;20142;28.494;-16.312;2023-05-10T03:27:02;19.80;79.00
33841;DHT22;20142;28.494;-16.312;2023-05-10T03:32:05;19.90;79.40
33841;DHT22;20142;28.494;-16.312;2023-05-10T03:37:07;19.80;79.40
33841;DHT22;20142;28.494;-16.312;2023-05-10T03:42:08;19.70;79.20
33841;DHT22;20142;28.494;-16.312;2023-05-10T03:47:12;19.70;79.40
33841;DHT22;20142;28.494;-16.312;2023-05-10T03:52:14;19.80;79.70
33841;DHT22;20142;28.494;-16.312;2023-05-10T03:57:16;19.70;79.90
33841;DHT22;20142;28.494;-16.312;2023-05-10T04:02:18;19.60;79.80
33841;DHT22;20142;28.494;-16.312;2023-05-10T04:07:19;19.70;80.20
33841;DHT22;20142;28.494;-16.312;2023-05-10T04:12:21;19.60;80.10
33841;DHT22;20142;28.494;-16.312;2023-05-10T04:17:23;19.60;80.30
33841;DHT22;20142;28.494;-16.312;2023-05-10T04:22:24;19.60;80.40
33841;DHT22;20142;28.494;-16.312;2023-05-10T04:27:26;19.70;80.50
33841;DHT22;20142;28.494;-16.312;2023-05-10T04:32:28;19.70;80.40
33841;DHT22;20142;28.494;-16.312;2023-05-10T04:37:30;19.60;80.60
33841;DHT22;20142;28.494;-16.312;2023-05-10T04:42:32;19.60;80.30
33841;DHT22;20142;28.494;-16.312;2023-05-10T04:47:33;19.80;80.10
33841;DHT22;20142;28.494;-16.312;2023-05-10T04:52:35;19.70;80.20
33841;DHT22;20142;28.494;-16.312;2023-05-10T04:57:37;19.60;80.50
33841;DHT22;20142;28.494;-16.312;2023-05-10T05:02:45;19.70;80.40
33841;DHT22;20142;28.494;-16.312;2023-05-10T05:07:47;19.70;80.10
33841;DHT22;20142;28.494;-16.312;2023-05-10T05:12:48;19.60;80.30
33841;DHT22;20142;28.494;-16.312;2023-05-10T05:17:50;19.50;80.50
33841;DHT22;20142;28.494;-16.312;2023-05-10T05:22:52;19.60;80.50
33841;DHT22;20142;28.494;-16.312;2023-05-10T05:27:54;19.60;80.30
33841;DHT22;20142;28.494;-16.312;2023-05-10T05:32:56;19.40;80.90
33841;DHT22;20142;28.494;-16.312;2023-05-10T05:37:57;19.50;81.10
33841;DHT22;20142;28.494;-16.312;2023-05-10T05:42:59;19.40;81.00
33841;DHT22;20142;28.494;-16.312;2023-05-10T05:48:01;19.40;81.30
33841;DHT22;20142;28.494;-16.312;2023-05-10T05:53:02;19.30;81.30
33841;DHT22;20142;28.494;-16.312;2023-05-10T05:58:04;19.30;81.50
33841;DHT22;20142;28.494;-16.312;2023-05-10T06:03:06;19.30;81.40
33841;DHT22;20142;28.494;-16.312;2023-05-10T06:08:08;19.20;81.50
33841;DHT22;20142;28.494;-16.312;2023-05-10T06:13:09;19.30;81.60
33841;DHT22;20142;28.494;-16.312;2023-05-10T06:18:11;19.30;81.30
33841;DHT22;20142;28.494;-16.312;2023-05-10T06:23:13;19.10;81.40
33841;DHT22;20142;28.494;-16.312;2023-05-10T06:28:15;19.10;81.60
33841;DHT22;20142;28.494;-16.312;2023-05-10T06:33:16;19.10;81.70
33841;DHT22;20142;28.494;-16.312;2023-05-10T06:38:18;19.00;82.00
33841;DHT22;20142;28.494;-16.312;2023-05-10T06:43:20;19.00;82.20
33841;DHT22;20142;28.494;-16.312;2023-05-10T06:48:21;19.10;82.40
33841;DHT22;20142;28.494;-16.312;2023-05-10T06:53:23;19.10;82.60
33841;DHT22;20142;28.494;-16.312;2023-05-10T06:58:25;19.30;82.50
33841;DHT22;20142;28.494;-16.312;2023-05-10T07:03:27;19.50;82.30
33841;DHT22;20142;28.494;-16.312;2023-05-10T07:08:30;19.60;82.60
33841;DHT22;20142;28.494;-16.312;2023-05-10T07:13:32;19.70;82.40
33841;DHT22;20142;28.494;-16.312;2023-05-10T07:18:34;19.80;82.40
33841;DHT22;20142;28.494;-16.312;2023-05-10T07:23:38;20.00;82.40
33841;DHT22;20142;28.494;-16.312;2023-05-10T07:28:39;20.20;82.50
33841;DHT22;20142;28.494;-16.312;2023-05-10T07:33:41;20.30;82.20
33841;DHT22;20142;28.494;-16.312;2023-05-10T07:38:43;20.50;82.40
33841;DHT22;20142;28.494;-16.312;2023-05-10T07:43:44;20.50;82.40
33841;DHT22;20142;28.494;-16.312;2023-05-10T07:48:46;20.70;82.30
33841;DHT22;20142;28.494;-16.312;2023-05-10T07:53:48;20.70;82.10
33841;DHT22;20142;28.494;-16.312;2023-05-10T07:58:50;20.80;82.50
33841;DHT22;20142;28.494;-16.312;2023-05-10T08:03:52;20.90;82.10
33841;DHT22;20142;28.494;-16.312;2023-05-10T08:08:54;21.10;82.00
33841;DHT22;20142;28.494;-16.312;2023-05-10T08:13:56;21.30;82.10
33841;DHT22;20142;28.494;-16.312;2023-05-10T08:18:58;21.50;81.50
33841;DHT22;20142;28.494;-16.312;2023-05-10T08:23:59;21.60;80.40
33841;DHT22;20142;28.494;-16.312;2023-05-10T08:29:01;21.40;81.00
33841;DHT22;20142;28.494;-16.312;2023-05-10T08:34:03;21.50;81.00
33841;DHT22;20142;28.494;-16.312;2023-05-10T08:39:05;21.70;81.20
33841;DHT22;20142;28.494;-16.312;2023-05-10T08:44:08;21.70;80.50
33841;DHT22;20142;28.494;-16.312;2023-05-10T08:49:11;21.80;81.10
33841;DHT22;20142;28.494;-16.312;2023-05-10T08:54:14;21.90;80.40
33841;DHT22;20142;28.494;-16.312;2023-05-10T08:59:17;21.80;80.50
33841;DHT22;20142;28.494;-16.312;2023-05-10T09:04:19;22.00;80.60
33841;DHT22;20142;28.494;-16.312;2023-05-10T09:09:21;22.20;80.30
33841;DHT22;20142;28.494;-16.312;2023-05-10T09:14:24;22.60;80.40
33841;DHT22;20142;28.494;-16.312;2023-05-10T09:19:27;22.50;79.60
33841;DHT22;20142;28.494;-16.312;2023-05-10T09:24:30;22.70;79.80
33841;DHT22;20142;28.494;-16.312;2023-05-10T09:29:42;22.70;79.00
33841;DHT22;20142;28.494;-16.312;2023-05-10T09:34:44;23.00;79.00
33841;DHT22;20142;28.494;-16.312;2023-05-10T09:39:46;23.10;78.10
33841;DHT22;20142;28.494;-16.312;2023-05-10T09:44:47;23.30;78.20
33841;DHT22;20142;28.494;-16.312;2023-05-10T09:49:50;23.30;77.40
33841;DHT22;20142;28.494;-16.312;2023-05-10T09:54:58;23.20;76.60
33841;DHT22;20142;28.494;-16.312;2023-05-10T10:00:00;23.30;77.10
33841;DHT22;20142;28.494;-16.312;2023-05-10T10:05:06;23.30;76.60
33841;DHT22;20142;28.494;-16.312;2023-05-10T10:10:09;23.40;77.10
33841;DHT22;20142;28.494;-16.312;2023-05-10T10:15:13;23.40;76.40
33841;DHT22;20142;28.494;-16.312;2023-05-10T10:20:15;23.50;75.90
33841;DHT22;20142;28.494;-16.312;2023-05-10T10:25:19;23.60;75.10
33841;DHT22;20142;28.494;-16.312;2023-05-10T10:30:37;23.90;74.60
33841;DHT22;20142;28.494;-16.312;2023-05-10T10:35:41;24.20;73.50
33841;DHT22;20142;28.494;-16.312;2023-05-10T10:40:44;24.20;74.50
33841;DHT22;20142;28.494;-16.312;2023-05-10T10:51:17;24.50;73.50
33841;DHT22;20142;28.494;-16.312;2023-05-10T10:56:22;24.50;73.20
33841;DHT22;20142;28.494;-16.312;2023-05-10T11:01:35;24.60;73.90
33841;DHT22;20142;28.494;-16.312;2023-05-10T11:06:37;24.80;73.50
33841;DHT22;20142;28.494;-16.312;2023-05-10T11:11:56;25.10;72.20
33841;DHT22;20142;28.494;-16.312;2023-05-10T11:17:01;25.20;71.80
33841;DHT22;20142;28.494;-16.312;2023-05-10T11:27:07;25.30;71.60
33841;DHT22;20142;28.494;-16.312;2023-05-10T11:32:09;25.50;71.30
33841;DHT22;20142;28.494;-16.312;2023-05-10T11:37:11;25.50;70.80
33841;DHT22;20142;28.494;-16.312;2023-05-10T11:42:12;25.50;70.40
33841;DHT22;20142;28.494;-16.312;2023-05-10T11:47:14;25.50;70.50
33841;DHT22;20142;28.494;-16.312;2023-05-10T11:52:18;25.60;70.50
33841;DHT22;20142;28.494;-16.312;2023-05-10T11:57:25;25.40;70.10
33841;DHT22;20142;28.494;-16.312;2023-05-10T12:02:28;25.30;69.80
33841;DHT22;20142;28.494;-16.312;2023-05-10T12:07:31;25.30;69.70
33841;DHT22;20142;28.494;-16.312;2023-05-10T12:12:39;25.30;69.40
33841;DHT22;20142;28.494;-16.312;2023-05-10T12:17:46;25.30;69.90
33841;DHT22;20142;28.494;-16.312;2023-05-10T12:22:53;25.40;68.50
33841;DHT22;20142;28.494;-16.312;2023-05-10T12:27:57;25.30;68.40
33841;DHT22;20142;28.494;-16.312;2023-05-10T12:38:29;25.10;68.20
33841;DHT22;20142;28.494;-16.312;2023-05-10T12:43:33;25.00;68.00
33841;DHT22;20142;28.494;-16.312;2023-05-10T12:48:37;25.00;68.30
33841;DHT22;20142;28.494;-16.312;2023-05-10T12:53:39;24.80;68.70
33841;DHT22;20142;28.494;-16.312;2023-05-10T12:58:41;24.80;68.50
33841;DHT22;20142;28.494;-16.312;2023-05-10T13:03:48;24.90;68.40
33841;DHT22;20142;28.494;-16.312;2023-05-10T13:08:50;25.00;68.20
33841;DHT22;20142;28.494;-16.312;2023-05-10T13:13:52;25.10;68.40
33841;DHT22;20142;28.494;-16.312;2023-05-10T13:18:54;25.20;68.30
33841;DHT22;20142;28.494;-16.312;2023-05-10T13:23:56;25.30;68.20
33841;DHT22;20142;28.494;-16.312;2023-05-10T13:28:58;25.30;68.40
33841;DHT22;20142;28.494;-16.312;2023-05-10T13:33:59;25.30;67.80
33841;DHT22;20142;28.494;-16.312;2023-05-10T13:39:01;25.20;67.00
33841;DHT22;20142;28.494;-16.312;2023-05-10T13:44:04;25.30;66.80
33841;DHT22;20142;28.494;-16.312;2023-05-10T13:49:06;25.40;66.80
33841;DHT22;20142;28.494;-16.312;2023-05-10T13:54:08;25.70;66.90
33841;DHT22;20142;28.494;-16.312;2023-05-10T13:59:09;25.90;66.60
33841;DHT22;20142;28.494;-16.312;2023-05-10T14:04:11;26.00;65.20
33841;DHT22;20142;28.494;-16.312;2023-05-10T14:09:13;26.50;64.20
33841;DHT22;20142;28.494;-16.312;2023-05-10T14:14:15;27.20;64.10
33841;DHT22;20142;28.494;-16.312;2023-05-10T14:19:17;28.10;62.00
33841;DHT22;20142;28.494;-16.312;2023-05-10T14:24:18;29.30;59.10
33841;DHT22;20142;28.494;-16.312;2023-05-10T14:29:21;30.30;58.20
33841;DHT22;20142;28.494;-16.312;2023-05-10T14:34:23;31.40;55.60
33841;DHT22;20142;28.494;-16.312;2023-05-10T14:39:24;32.40;53.90
33841;DHT22;20142;28.494;-16.312;2023-05-10T14:44:26;32.70;52.60
33841;DHT22;20142;28.494;-16.312;2023-05-10T14:49:28;33.20;51.60
33841;DHT22;20142;28.494;-16.312;2023-05-10T14:54:30;34.00;49.30
33841;DHT22;20142;28.494;-16.312;2023-05-10T14:59:34;34.70;49.10
33841;DHT22;20142;28.494;-16.312;2023-05-10T15:04:36;35.10;46.10
33841;DHT22;20142;28.494;-16.312;2023-05-10T15:09:38;35.20;46.70
33841;DHT22;20142;28.494;-16.312;2023-05-10T15:14:39;35.40;44.70
33841;DHT22;20142;28.494;-16.312;2023-05-10T15:19:41;35.50;42.80
33841;DHT22;20142;28.494;-16.312;2023-05-10T15:24:44;35.40;43.00
33841;DHT22;20142;28.494;-16.312;2023-05-10T15:29:45;35.80;43.40
33841;DHT22;20142;28.494;-16.312;2023-05-10T15:34:47;36.00;43.60
33841;DHT22;20142;28.494;-16.312;2023-05-10T15:39:49;36.60;43.10
33841;DHT22;20142;28.494;-16.312;2023-05-10T15:44:51;37.20;42.10
33841;DHT22;20142;28.494;-16.312;2023-05-10T15:49:52;37.40;41.10
33841;DHT22;20142;28.494;-16.312;2023-05-10T15:54:54;36.90;40.80
33841;DHT22;20142;28.494;-16.312;2023-05-10T15:59:56;36.40;40.60
33841;DHT22;20142;28.494;-16.312;2023-05-10T16:04:58;36.90;41.00
33841;DHT22;20142;28.494;-16.312;2023-05-10T16:10:00;36.90;40.60
33841;DHT22;20142;28.494;-16.312;2023-05-10T16:15:04;37.10;40.60
33841;DHT22;20142;28.494;-16.312;2023-05-10T16:20:07;36.80;41.10
33841;DHT22;20142;28.494;-16.312;2023-05-10T16:25:09;38.50;39.30
33841;DHT22;20142;28.494;-16.312;2023-05-10T16:30:11;38.70;39.50
33841;DHT22;20142;28.494;-16.312;2023-05-10T16:35:14;39.20;39.50
33841;DHT22;20142;28.494;-16.312;2023-05-10T16:40:16;40.20;36.90
33841;DHT22;20142;28.494;-16.312;2023-05-10T16:45:18;39.60;38.00
33841;DHT22;20142;28.494;-16.312;2023-05-10T16:50:20;40.50;37.40
33841;DHT22;20142;28.494;-16.312;2023-05-10T16:55:22;40.50;36.20
33841;DHT22;20142;28.494;-16.312;2023-05-10T17:00:24;39.50;36.70
33841;DHT22;20142;28.494;-16.312;2023-05-10T17:05:29;39.20;36.50
33841;DHT22;20142;28.494;-16.312;2023-05-10T17:10:31;38.80;36.00
33841;DHT22;20142;28.494;-16.312;2023-05-10T17:15:35;39.50;35.50
33841;DHT22;20142;28.494;-16.312;2023-05-10T17:20:37;38.90;35.80
33841;DHT22;20142;28.494;-16.312;2023-05-10T17:25:39;39.50;36.60
33841;DHT22;20142;28.494;-16.312;2023-05-10T17:30:42;39.30;35.30
33841;DHT22;20142;28.494;-16.312;2023-05-10T17:35:44;38.30;36.10
33841;DHT22;20142;28.494;-16.312;2023-05-10T17:40:46;38.40;36.20
33841;DHT22;20142;28.494;-16.312;2023-05-10T17:45:48;36.80;37.30
33841;DHT22;20142;28.494;-16.312;2023-05-10T17:50:50;36.90;38.10
33841;DHT22;20142;28.494;-16.312;2023-05-10T17:55:52;37.10;38.40
33841;DHT22;20142;28.494;-16.312;2023-05-10T18:00:55;37.70;38.10
33841;DHT22;20142;28.494;-16.312;2023-05-10T18:05:57;37.50;37.10
33841;DHT22;20142;28.494;-16.312;2023-05-10T18:10:59;36.40;38.60
33841;DHT22;20142;28.494;-16.312;2023-05-10T18:16:01;36.60;38.10
33841;DHT22;20142;28.494;-16.312;2023-05-10T18:21:05;35.90;37.50
33841;DHT22;20142;28.494;-16.312;2023-05-10T18:26:07;35.90;38.50
33841;DHT22;20142;28.494;-16.312;2023-05-10T18:31:09;36.60;37.90
33841;DHT22;20142;28.494;-16.312;2023-05-10T18:36:12;36.70;37.70
33841;DHT22;20142;28.494;-16.312;2023-05-10T18:41:14;36.20;37.50
33841;DHT22;20142;28.494;-16.312;2023-05-10T18:46:15;35.00;38.60
33841;DHT22;20142;28.494;-16.312;2023-05-10T18:51:17;34.70;38.50
33841;DHT22;20142;28.494;-16.312;2023-05-10T18:56:20;34.10;39.30
33841;DHT22;20142;28.494;-16.312;2023-05-10T19:01:22;32.80;39.90
33841;DHT22;20142;28.494;-16.312;2023-05-10T19:06:24;31.20;42.00
33841;DHT22;20142;28.494;-16.312;2023-05-10T19:11:26;29.80;42.90
33841;DHT22;20142;28.494;-16.312;2023-05-10T19:16:30;28.60;44.40
33841;DHT22;20142;28.494;-16.312;2023-05-10T19:21:34;27.80;46.00
33841;DHT22;20142;28.494;-16.312;2023-05-10T19:26:36;27.20;46.70
33841;DHT22;20142;28.494;-16.312;2023-05-10T19:31:37;26.40;47.00
33841;DHT22;20142;28.494;-16.312;2023-05-10T19:36:40;25.40;49.40
33841;DHT22;20142;28.494;-16.312;2023-05-10T19:41:41;24.80;51.00
33841;DHT22;20142;28.494;-16.312;2023-05-10T19:46:44;24.80;51.90
33841;DHT22;20142;28.494;-16.312;2023-05-10T19:51:46;24.50;51.90
33841;DHT22;20142;28.494;-16.312;2023-05-10T19:56:47;24.20;52.60
33841;DHT22;20142;28.494;-16.312;2023-05-10T20:01:49;23.90;53.80
33841;DHT22;20142;28.494;-16.312;2023-05-10T20:06:51;24.10;54.30
33841;DHT22;20142;28.494;-16.312;2023-05-10T20:11:52;24.00;54.60
33841;DHT22;20142;28.494;-16.312;2023-05-10T20:16:54;24.10;55.00
33841;DHT22;20142;28.494;-16.312;2023-05-10T20:21:56;24.50;55.20
33841;DHT22;20142;28.494;-16.312;2023-05-10T20:26:58;24.60;55.60
33841;DHT22;20142;28.494;-16.312;2023-05-10T20:32:00;24.20;55.60
33841;DHT22;20142;28.494;-16.312;2023-05-10T20:37:02;23.70;56.20
33841;DHT22;20142;28.494;-16.312;2023-05-10T20:42:04;23.50;58.80
33841;DHT22;20142;28.494;-16.312;2023-05-10T20:47:05;23.20;59.00
33841;DHT22;20142;28.494;-16.312;2023-05-10T20:52:08;23.00;60.40
33841;DHT22;20142;28.494;-16.312;2023-05-10T20:57:09;23.40;61.20
33841;DHT22;20142;28.494;-16.312;2023-05-10T21:02:14;23.70;59.90
33841;DHT22;20142;28.494;-16.312;2023-05-10T21:07:16;23.70;60.00
33841;DHT22;20142;28.494;-16.312;2023-05-10T21:12:18;23.60;61.40
33841;DHT22;20142;28.494;-16.312;2023-05-10T21:17:20;23.50;62.10
33841;DHT22;20142;28.494;-16.312;2023-05-10T21:22:22;23.50;62.70
33841;DHT22;20142;28.494;-16.312;2023-05-10T21:27:23;23.40;63.30
33841;DHT22;20142;28.494;-16.312;2023-05-10T21:32:25;23.30;63.60
33841;DHT22;20142;28.494;-16.312;2023-05-10T21:37:27;23.30;64.10
33841;DHT22;20142;28.494;-16.312;2023-05-10T21:42:29;23.40;64.80
33841;DHT22;20142;28.494;-16.312;2023-05-10T21:47:32;23.40;64.70
33841;DHT22;20142;28.494;-16.312;2023-05-10T21:52:33;23.20;64.90
33841;DHT22;20142;28.494;-16.312;2023-05-10T21:57:36;23.30;65.10
33841;DHT22;20142;28.494;-16.312;2023-05-10T22:02:37;23.30;65.30
33841;DHT22;20142;28.494;-16.312;2023-05-10T22:07:39;23.50;65.10
33841;DHT22;20142;28.494;-16.312;2023-05-10T22:12:43;23.30;65.00
33841;DHT22;20142;28.494;-16.312;2023-05-10T22:17:44;23.10;65.60
33841;DHT22;20142;28.494;-16.312;2023-05-10T22:22:46;22.90;66.30
33841;DHT22;20142;28.494;-16.312;2023-05-10T22:27:49;22.80;66.30
33841;DHT22;20142;28.494;-16.312;2023-05-10T22:32:51;22.80;66.80
33841;DHT22;20142;28.494;-16.312;2023-05-10T22:37:53;22.80;67.40
33841;DHT22;20142;28.494;-16.312;2023-05-10T22:42:55;22.90;67.50
33841;DHT22;20142;28.494;-16.312;2023-05-10T22:47:57;22.90;67.40
33841;DHT22;20142;28.494;-16.312;2023-05-10T22:52:59;22.80;67.50
33841;DHT22;20142;28.494;-16.312;2023-05-10T22:58:01;22.80;68.00
33841;DHT22;20142;28.494;-16.312;2023-05-10T23:03:04;22.80;67.90
33841;DHT22;20142;28.494;-16.312;2023-05-10T23:08:06;22.80;68.10
33841;DHT22;20142;28.494;-16.312;2023-05-10T23:13:08;22.70;68.00
33841;DHT22;20142;28.494;-16.312;2023-05-10T23:18:09;22.70;68.00
33841;DHT22;20142;28.494;-16.312;2023-05-10T23:23:12;22.70;67.70
33841;DHT22;20142;28.494;-16.312;2023-05-10T23:28:14;22.60;67.70
33841;DHT22;20142;28.494;-16.312;2023-05-10T23:33:16;22.60;67.90
33841;DHT22;20142;28.494;-16.312;2023-05-10T23:38:18;22.60;68.10
33841;DHT22;20142;28.494;-16.312;2023-05-10T23:43:20;22.70;67.70
33841;DHT22;20142;28.494;-16.312;2023-05-10T23:48:22;22.60;67.60
33841;DHT22;20142;28.494;-16.312;2023-05-10T23:53:24;22.60;67.60
33841;DHT22;20142;28.494;-16.312;2023-05-10T23:58:25;22.60;67.30
